createdAt,value
2017-05-17T00:00:07.150Z,16.24
2017-05-17T00:00:47.647Z,16.21
2017-05-17T00:01:28.991Z,16.28
2017-05-17T00:02:09.488Z,16.26
2017-05-17T00:02:51.725Z,16.2
2017-05-17T00:03:32.269Z,16.23
2017-05-17T00:04:12.786Z,16.23
2017-05-17T00:04:53.262Z,16.17
2017-05-17T00:05:33.689Z,16.17
2017-05-17T00:06:14.185Z,16.23
2017-05-17T00:06:54.703Z,16.23
2017-05-17T00:07:35.207Z,16.23
2017-05-17T00:08:15.671Z,16.16
2017-05-17T00:08:56.130Z,16.13
2017-05-17T00:09:36.608Z,16.13
2017-05-17T00:10:17.100Z,16.17
2017-05-17T00:10:57.627Z,16.13
2017-05-17T00:11:38.128Z,16.16
2017-05-17T00:12:18.649Z,16.24
2017-05-17T00:12:59.070Z,16.15
2017-05-17T00:13:40.210Z,16.15
2017-05-17T00:14:20.723Z,16.17
2017-05-17T00:15:01.201Z,16.16
2017-05-17T00:15:41.713Z,16.1
2017-05-17T00:16:22.244Z,16.13
2017-05-17T00:17:02.856Z,16.15
2017-05-17T00:17:43.205Z,16.16
2017-05-17T00:18:23.762Z,16.15
2017-05-17T00:19:04.222Z,16.2
2017-05-17T00:19:44.655Z,16.17
2017-05-17T00:20:25.174Z,16.2
2017-05-17T00:21:05.610Z,16.16
2017-05-17T00:21:46.102Z,16.23
2017-05-17T00:22:26.596Z,16.13
2017-05-17T00:23:07.060Z,16.15
2017-05-17T00:23:47.549Z,16.15
2017-05-17T00:24:28.059Z,16.13
2017-05-17T00:25:08.511Z,16.21
2017-05-17T00:25:48.996Z,16.17
2017-05-17T00:26:29.527Z,16.21
2017-05-17T00:27:10.048Z,16.15
2017-05-17T00:27:50.506Z,16.15
2017-05-17T00:28:31.056Z,16.13
2017-05-17T00:29:11.488Z,16.23
2017-05-17T00:29:51.992Z,16.2
2017-05-17T00:30:32.519Z,16.16
2017-05-17T00:31:12.943Z,16.21
2017-05-17T00:31:53.400Z,16.26
2017-05-17T00:32:33.889Z,16.23
2017-05-17T00:33:14.449Z,16.21
2017-05-17T00:33:55.011Z,16.23
2017-05-17T00:34:35.453Z,16.2
2017-05-17T00:35:15.951Z,16.23
2017-05-17T00:35:56.432Z,16.23
2017-05-17T00:36:37.066Z,16.21
2017-05-17T00:37:17.541Z,16.2
2017-05-17T00:37:58.037Z,16.17
2017-05-17T00:38:38.605Z,16.23
2017-05-17T00:39:19.062Z,16.17
2017-05-17T00:39:59.543Z,16.17
2017-05-17T00:40:40.032Z,16.23
2017-05-17T00:41:20.516Z,16.16
2017-05-17T00:42:01.108Z,16.2
2017-05-17T00:42:41.522Z,16.17
2017-05-17T00:43:22.019Z,16.17
2017-05-17T00:44:02.516Z,16.2
2017-05-17T00:44:42.974Z,16.16
2017-05-17T00:45:23.543Z,16.16
2017-05-17T00:46:04.010Z,16.16
2017-05-17T00:46:44.517Z,16.13
2017-05-17T00:47:24.964Z,16.15
2017-05-17T00:48:05.509Z,16.15
2017-05-17T00:48:45.966Z,16.05
2017-05-17T00:49:26.440Z,16.13
2017-05-17T00:50:06.933Z,16.15
2017-05-17T00:50:47.419Z,16.17
2017-05-17T00:51:27.924Z,16.15
2017-05-17T00:52:08.376Z,16.15
2017-05-17T00:52:48.863Z,16.16
2017-05-17T00:53:29.381Z,16.13
2017-05-17T00:54:09.855Z,16.17
2017-05-17T00:54:50.385Z,16.13
2017-05-17T00:55:30.818Z,16.09
2017-05-17T00:56:11.311Z,16.15
2017-05-17T00:56:51.824Z,16.13
2017-05-17T00:57:32.333Z,16.09
2017-05-17T00:58:12.802Z,16.12
2017-05-17T00:58:53.329Z,16.09
2017-05-17T00:59:33.813Z,16.16
2017-05-17T01:00:14.312Z,16.12
2017-05-17T01:00:54.778Z,16.15
2017-05-17T01:01:35.248Z,16.13
2017-05-17T01:02:15.736Z,16.08
2017-05-17T01:02:56.195Z,16.05
2017-05-17T01:03:36.693Z,16.13
2017-05-17T01:04:17.280Z,16.1
2017-05-17T01:04:57.827Z,16.16
2017-05-17T01:05:38.320Z,16.15
2017-05-17T01:06:18.838Z,16.15
2017-05-17T01:06:59.313Z,16.15
2017-05-17T01:07:39.804Z,16.15
2017-05-17T01:08:20.292Z,16.12
2017-05-17T01:09:00.787Z,16.1
2017-05-17T01:09:41.290Z,16.09
2017-05-17T01:10:21.730Z,16.12
2017-05-17T01:11:02.193Z,16.13
2017-05-17T01:11:42.701Z,16.15
2017-05-17T01:12:23.199Z,16.13
2017-05-17T01:13:03.677Z,16.1
2017-05-17T01:13:44.176Z,16.12
2017-05-17T01:14:24.674Z,16.12
2017-05-17T01:15:05.219Z,16.17
2017-05-17T01:15:45.704Z,16.12
2017-05-17T01:16:26.233Z,16.12
2017-05-17T01:17:06.709Z,16.17
2017-05-17T01:17:47.226Z,16.13
2017-05-17T01:18:28.396Z,16.13
2017-05-17T01:19:08.884Z,16.1
2017-05-17T01:19:49.392Z,16.15
2017-05-17T01:20:29.893Z,16.16
2017-05-17T01:21:10.367Z,16.26
2017-05-17T01:21:50.862Z,16.15
2017-05-17T01:22:31.369Z,16.13
2017-05-17T01:23:11.947Z,16.13
2017-05-17T01:23:52.493Z,16.21
2017-05-17T01:24:32.995Z,16.16
2017-05-17T01:25:14.336Z,16.12
2017-05-17T01:25:54.803Z,16.15
2017-05-17T01:26:35.267Z,16.16
2017-05-17T01:27:15.778Z,16.21
2017-05-17T01:27:56.307Z,16.21
2017-05-17T01:28:36.874Z,16.16
2017-05-17T01:29:17.302Z,16.2
2017-05-17T01:29:57.800Z,16.13
2017-05-17T01:30:38.322Z,16.13
2017-05-17T01:31:18.824Z,16.2
2017-05-17T01:31:59.302Z,16.17
2017-05-17T01:32:39.769Z,16.12
2017-05-17T01:33:20.247Z,16.12
2017-05-17T01:34:00.725Z,16.16
2017-05-17T01:34:41.206Z,16.13
2017-05-17T01:35:21.722Z,16.12
2017-05-17T01:36:02.179Z,16.17
2017-05-17T01:36:42.653Z,16.12
2017-05-17T01:37:23.191Z,16.15
2017-05-17T01:38:03.700Z,16.15
2017-05-17T01:38:44.180Z,16.16
2017-05-17T01:39:24.732Z,16.15
2017-05-17T01:40:05.190Z,16.21
2017-05-17T01:40:45.685Z,16.2
2017-05-17T01:41:26.141Z,16.23
2017-05-17T01:42:06.643Z,16.16
2017-05-17T01:42:47.282Z,16.16
2017-05-17T01:43:27.760Z,16.24
2017-05-17T01:44:08.210Z,16.16
2017-05-17T01:44:48.862Z,16.17
2017-05-17T01:45:29.323Z,16.15
2017-05-17T01:46:09.870Z,16.15
2017-05-17T01:46:50.389Z,16.12
2017-05-17T01:47:30.886Z,16.12
2017-05-17T01:48:11.341Z,16.13
2017-05-17T01:48:51.861Z,16.16
2017-05-17T01:49:32.358Z,16.12
2017-05-17T01:50:12.794Z,16.13
2017-05-17T01:50:53.314Z,16.16
2017-05-17T01:51:33.781Z,16.15
2017-05-17T01:52:14.268Z,16.15
2017-05-17T01:52:54.743Z,16.1
2017-05-17T01:53:35.220Z,16.1
2017-05-17T01:54:15.681Z,16.13
2017-05-17T01:54:56.227Z,16.13
2017-05-17T01:55:36.702Z,16.12
2017-05-17T01:56:17.159Z,16.13
2017-05-17T01:56:57.654Z,16.13
2017-05-17T01:57:39.060Z,16.08
2017-05-17T01:58:19.491Z,16.01
2017-05-17T01:59:00.115Z,16.12
2017-05-17T01:59:40.642Z,16.12
2017-05-17T02:00:21.092Z,16
2017-05-17T02:01:01.630Z,16.12
2017-05-17T02:01:42.138Z,16.12
2017-05-17T02:02:22.647Z,16.08
2017-05-17T02:03:03.786Z,16.13
2017-05-17T02:03:44.223Z,16.13
2017-05-17T02:04:24.748Z,15.98
2017-05-17T02:05:05.281Z,16.09
2017-05-17T02:05:45.647Z,16.09
2017-05-17T02:06:26.173Z,16.09
2017-05-17T02:07:06.629Z,16.02
2017-05-17T02:07:47.160Z,16.05
2017-05-17T02:08:27.635Z,16.05
2017-05-17T02:09:08.081Z,16.13
2017-05-17T02:09:48.620Z,16.02
2017-05-17T02:10:29.041Z,16.08
2017-05-17T02:11:09.540Z,16.09
2017-05-17T02:11:50.072Z,16.13
2017-05-17T02:12:31.317Z,16.02
2017-05-17T02:13:11.867Z,15.98
2017-05-17T02:13:52.312Z,16.13
2017-05-17T02:14:32.773Z,16.02
2017-05-17T02:15:13.312Z,16.08
2017-05-17T02:15:53.764Z,16.08
2017-05-17T02:16:34.195Z,16.09
2017-05-17T02:17:14.693Z,16.01
2017-05-17T02:17:55.203Z,15.97
2017-05-17T02:18:35.682Z,16.01
2017-05-17T02:19:16.154Z,16.08
2017-05-17T02:19:56.655Z,16.01
2017-05-17T02:20:37.169Z,16.05
2017-05-17T02:21:17.682Z,16.01
2017-05-17T02:21:58.133Z,15.94
2017-05-17T02:22:38.627Z,15.94
2017-05-17T02:23:19.077Z,15.9
2017-05-17T02:23:59.569Z,15.92
2017-05-17T02:24:40.046Z,16
2017-05-17T02:25:20.630Z,15.94
2017-05-17T02:26:01.057Z,15.95
2017-05-17T02:26:41.650Z,15.92
2017-05-17T02:27:22.914Z,15.95
2017-05-17T02:28:03.367Z,15.91
2017-05-17T02:28:43.846Z,15.95
2017-05-17T02:29:24.402Z,15.94
2017-05-17T02:30:04.884Z,15.91
2017-05-17T02:30:45.359Z,15.92
2017-05-17T02:31:25.853Z,15.91
2017-05-17T02:32:06.328Z,15.91
2017-05-17T02:32:46.845Z,15.86
2017-05-17T02:33:27.306Z,15.94
2017-05-17T02:34:07.818Z,15.97
2017-05-17T02:34:49.183Z,15.91
2017-05-17T02:35:29.761Z,15.98
2017-05-17T02:36:10.256Z,15.92
2017-05-17T02:36:50.765Z,15.94
2017-05-17T02:37:31.198Z,15.94
2017-05-17T02:38:11.698Z,15.94
2017-05-17T02:38:52.182Z,15.94
2017-05-17T02:39:32.690Z,15.91
2017-05-17T02:40:13.165Z,15.91
2017-05-17T02:40:53.684Z,15.9
2017-05-17T02:41:34.825Z,15.95
2017-05-17T02:42:15.344Z,15.91
2017-05-17T02:42:55.797Z,15.92
2017-05-17T02:43:36.337Z,15.92
2017-05-17T02:44:16.850Z,15.83
2017-05-17T02:44:57.287Z,15.86
2017-05-17T02:45:37.782Z,15.83
2017-05-17T02:46:18.299Z,15.82
2017-05-17T02:46:58.762Z,15.8
2017-05-17T02:47:39.340Z,15.83
2017-05-17T02:48:19.790Z,15.86
2017-05-17T02:49:00.241Z,15.83
2017-05-17T02:49:40.764Z,15.82
2017-05-17T02:50:21.293Z,15.76
2017-05-17T02:51:01.750Z,15.79
2017-05-17T02:51:42.275Z,15.77
2017-05-17T02:52:22.712Z,15.65
2017-05-17T02:53:03.167Z,15.73
2017-05-17T02:53:43.708Z,15.75
2017-05-17T02:54:24.166Z,15.67
2017-05-17T02:55:05.256Z,15.65
2017-05-17T02:55:45.737Z,15.67
2017-05-17T02:56:26.229Z,15.67
2017-05-17T02:57:06.705Z,15.62
2017-05-17T02:57:47.190Z,15.65
2017-05-17T02:58:27.702Z,15.59
2017-05-17T02:59:08.159Z,15.62
2017-05-17T02:59:48.627Z,15.59
2017-05-17T03:00:29.188Z,15.57
2017-05-17T03:01:09.674Z,15.59
2017-05-17T03:01:50.187Z,15.57
2017-05-17T03:02:30.638Z,15.54
2017-05-17T03:03:11.141Z,15.54
2017-05-17T03:03:51.618Z,15.49
2017-05-17T03:04:32.124Z,15.52
2017-05-17T03:05:12.618Z,15.57
2017-05-17T03:05:53.129Z,15.55
2017-05-17T03:06:33.626Z,15.57
2017-05-17T03:07:14.162Z,15.49
2017-05-17T03:07:54.686Z,15.49
2017-05-17T03:08:35.140Z,15.52
2017-05-17T03:09:15.644Z,15.54
2017-05-17T03:09:56.139Z,15.55
2017-05-17T03:10:36.593Z,15.47
2017-05-17T03:11:17.041Z,15.49
2017-05-17T03:11:57.652Z,15.44
2017-05-17T03:12:38.559Z,15.46
2017-05-17T03:13:19.041Z,15.46
2017-05-17T03:13:59.553Z,15.49
2017-05-17T03:14:40.026Z,15.46
2017-05-17T03:15:20.489Z,15.44
2017-05-17T03:16:00.945Z,15.44
2017-05-17T03:16:41.477Z,15.4
2017-05-17T03:17:21.904Z,15.42
2017-05-17T03:18:02.422Z,15.43
2017-05-17T03:18:42.916Z,15.44
2017-05-17T03:19:23.429Z,15.47
2017-05-17T03:20:03.877Z,15.47
2017-05-17T03:20:44.354Z,15.46
2017-05-17T03:21:24.876Z,15.51
2017-05-17T03:22:05.350Z,15.37
2017-05-17T03:22:45.824Z,15.39
2017-05-17T03:23:26.308Z,15.43
2017-05-17T03:24:06.797Z,15.36
2017-05-17T03:24:47.333Z,15.39
2017-05-17T03:25:27.827Z,15.46
2017-05-17T03:26:08.272Z,15.39
2017-05-17T03:26:48.771Z,15.36
2017-05-17T03:27:29.237Z,15.4
2017-05-17T03:28:09.802Z,15.37
2017-05-17T03:28:50.231Z,15.36
2017-05-17T03:29:30.724Z,15.39
2017-05-17T03:30:11.177Z,15.39
2017-05-17T03:30:51.651Z,15.22
2017-05-17T03:31:32.243Z,15.24
2017-05-17T03:32:12.707Z,15.37
2017-05-17T03:32:53.159Z,15.36
2017-05-17T03:33:33.679Z,15.43
2017-05-17T03:34:14.170Z,15.46
2017-05-17T03:34:54.675Z,15.39
2017-05-17T03:35:35.197Z,15.37
2017-05-17T03:36:15.731Z,15.4
2017-05-17T03:36:56.200Z,15.29
2017-05-17T03:37:36.671Z,15.39
2017-05-17T03:38:17.241Z,15.37
2017-05-17T03:38:58.703Z,15.33
2017-05-17T03:39:39.128Z,15.31
2017-05-17T03:40:19.613Z,15.46
2017-05-17T03:41:00.129Z,15.31
2017-05-17T03:41:40.659Z,15.42
2017-05-17T03:42:23.735Z,15.4
2017-05-17T03:43:04.255Z,15.43
2017-05-17T03:43:44.712Z,15.42
2017-05-17T03:44:25.191Z,15.42
2017-05-17T03:45:06.698Z,15.43
2017-05-17T03:45:47.162Z,15.42
2017-05-17T03:46:27.662Z,15.39
2017-05-17T03:47:08.266Z,15.46
2017-05-17T03:47:48.755Z,15.37
2017-05-17T03:48:29.234Z,15.35
2017-05-17T03:49:09.723Z,15.36
2017-05-17T03:49:50.265Z,15.4
2017-05-17T03:50:30.694Z,15.4
2017-05-17T03:51:11.165Z,15.46
2017-05-17T03:51:51.645Z,15.44
2017-05-17T03:52:32.263Z,15.46
2017-05-17T03:53:12.755Z,15.46
2017-05-17T03:53:53.215Z,15.44
2017-05-17T03:54:33.743Z,15.44
2017-05-17T03:55:14.864Z,15.47
2017-05-17T03:55:55.351Z,15.43
2017-05-17T03:56:35.802Z,15.46
2017-05-17T03:57:16.331Z,15.36
2017-05-17T03:57:56.755Z,15.43
2017-05-17T03:58:37.293Z,15.49
2017-05-17T03:59:17.775Z,15.42
2017-05-17T03:59:58.248Z,15.49
2017-05-17T04:00:38.748Z,15.46
2017-05-17T04:01:19.206Z,15.42
2017-05-17T04:01:59.703Z,15.4
2017-05-17T04:02:40.214Z,15.51
2017-05-17T04:03:20.695Z,15.49
2017-05-17T04:04:01.225Z,15.51
2017-05-17T04:04:41.696Z,15.52
2017-05-17T04:05:22.226Z,15.55
2017-05-17T04:06:02.707Z,15.51
2017-05-17T04:06:43.190Z,15.47
2017-05-17T04:07:23.692Z,15.47
2017-05-17T04:08:04.127Z,15.57
2017-05-17T04:08:44.646Z,15.52
2017-05-17T04:09:25.114Z,15.58
2017-05-17T04:10:05.557Z,15.59
2017-05-17T04:10:46.095Z,15.52
2017-05-17T04:11:26.593Z,15.54
2017-05-17T04:12:07.126Z,15.59
2017-05-17T04:12:48.331Z,15.57
2017-05-17T04:13:28.819Z,15.64
2017-05-17T04:14:11.284Z,15.57
2017-05-17T04:14:51.803Z,15.58
2017-05-17T04:15:33.973Z,15.67
2017-05-17T04:16:14.475Z,15.68
2017-05-17T04:16:55.756Z,15.57
2017-05-17T04:17:36.319Z,15.62
2017-05-17T04:18:16.766Z,15.65
2017-05-17T04:18:57.878Z,15.73
2017-05-17T04:19:38.410Z,15.72
2017-05-17T04:20:19.015Z,15.68
2017-05-17T04:21:00.417Z,15.75
2017-05-17T04:21:40.900Z,15.76
2017-05-17T04:22:21.543Z,15.77
2017-05-17T04:23:03.756Z,15.68
2017-05-17T04:23:44.367Z,15.79
2017-05-17T04:24:24.882Z,15.75
2017-05-17T04:25:06.917Z,15.73
2017-05-17T04:25:48.363Z,15.86
2017-05-17T04:26:29.978Z,15.76
2017-05-17T04:27:11.498Z,15.83
2017-05-17T04:27:54.903Z,15.86
2017-05-17T04:28:35.450Z,15.9
2017-05-17T04:29:16.955Z,15.92
2017-05-17T04:29:58.443Z,15.91
2017-05-17T04:30:43.170Z,15.91
2017-05-17T04:31:25.228Z,15.91
2017-05-17T04:32:05.742Z,15.92
2017-05-17T04:32:47.850Z,15.98
2017-05-17T04:33:28.499Z,15.94
2017-05-17T04:34:09.011Z,16.04
2017-05-17T04:34:49.522Z,16.04
2017-05-17T04:35:30.028Z,16.01
2017-05-17T04:36:11.533Z,16.02
2017-05-17T04:36:52.069Z,16
2017-05-17T04:37:32.626Z,16.17
2017-05-17T04:38:13.107Z,16.21
2017-05-17T04:38:53.716Z,16.17
2017-05-17T04:39:36.672Z,16.2
2017-05-17T04:40:17.198Z,16.23
2017-05-17T04:40:59.327Z,16.28
2017-05-17T04:41:40.854Z,16.26
2017-05-17T04:42:21.369Z,16.36
2017-05-17T04:43:01.852Z,16.28
2017-05-17T04:43:42.435Z,16.31
2017-05-17T04:44:22.964Z,16.41
2017-05-17T04:45:03.441Z,16.42
2017-05-17T04:45:45.846Z,16.33
2017-05-17T04:46:26.393Z,16.33
2017-05-17T04:47:07.903Z,16.51
2017-05-17T04:47:50.409Z,16.46
2017-05-17T04:48:32.638Z,16.54
2017-05-17T04:49:13.109Z,16.53
2017-05-17T04:49:53.614Z,16.46
2017-05-17T04:50:35.784Z,16.54
2017-05-17T04:51:16.256Z,16.51
2017-05-17T04:51:56.814Z,16.56
2017-05-17T04:52:39.360Z,16.54
2017-05-17T04:53:20.837Z,16.54
2017-05-17T04:54:01.382Z,16.65
2017-05-17T04:54:41.957Z,16.68
2017-05-17T04:55:22.446Z,16.69
2017-05-17T04:57:22.954Z,16.65
2017-05-17T04:58:09.542Z,16.69
2017-05-17T04:58:58.244Z,16.66
2017-05-17T04:59:47.331Z,16.68
2017-05-17T05:00:35.736Z,16.71
2017-05-17T05:01:24.916Z,16.71
2017-05-17T05:02:14.611Z,16.72
2017-05-17T05:03:03.308Z,16.78
2017-05-17T05:03:52.051Z,16.84
2017-05-17T05:04:40.196Z,16.84
2017-05-17T05:05:29.145Z,16.84
2017-05-17T05:06:17.659Z,16.86
2017-05-17T05:07:06.266Z,16.87
2017-05-17T05:07:55.472Z,16.93
2017-05-17T05:08:43.571Z,16.9
2017-05-17T05:09:32.127Z,16.89
2017-05-17T05:10:21.106Z,16.83
2017-05-17T05:11:09.521Z,16.89
2017-05-17T05:11:58.517Z,16.89
2017-05-17T05:12:47.433Z,16.94
2017-05-17T05:13:35.672Z,16.96
2017-05-17T05:14:24.456Z,16.97
2017-05-17T05:15:12.962Z,16.97
2017-05-17T05:16:01.876Z,17.09
2017-05-17T05:16:49.913Z,17.05
2017-05-17T05:17:38.775Z,16.96
2017-05-17T05:18:27.981Z,17.04
2017-05-17T05:19:16.982Z,17.14
2017-05-17T05:20:04.991Z,17.06
2017-05-17T05:20:54.082Z,17.16
2017-05-17T05:21:42.456Z,17.23
2017-05-17T05:22:31.195Z,17.24
2017-05-17T05:23:19.653Z,17.22
2017-05-17T05:24:08.607Z,17.29
2017-05-17T05:24:57.090Z,17.29
2017-05-17T05:25:45.689Z,17.23
2017-05-17T05:26:34.869Z,17.33
2017-05-17T05:27:23.191Z,17.33
2017-05-17T05:28:12.406Z,17.36
2017-05-17T05:29:01.579Z,17.34
2017-05-17T05:29:50.417Z,17.39
2017-05-17T05:30:38.926Z,17.45
2017-05-17T05:31:27.366Z,17.46
2017-05-17T05:32:16.229Z,17.44
2017-05-17T05:33:06.086Z,17.34
2017-05-17T05:33:55.080Z,17.48
2017-05-17T05:34:45.394Z,17.42
2017-05-17T05:35:33.747Z,17.39
2017-05-17T05:36:23.254Z,17.38
2017-05-17T05:37:19.636Z,17.52
2017-05-17T05:39:22.754Z,17.52
2017-05-17T05:40:11.684Z,17.49
2017-05-17T05:41:01.295Z,17.48
2017-05-17T05:41:49.185Z,17.54
2017-05-17T05:42:44.880Z,17.51
2017-05-17T05:44:22.859Z,17.65
2017-05-17T05:45:12.023Z,17.52
2017-05-17T05:45:57.536Z,17.63
2017-05-17T05:46:46.816Z,17.65
2017-05-17T05:47:27.906Z,17.82
2017-05-17T05:48:08.433Z,17.74
2017-05-17T05:48:48.907Z,17.82
2017-05-17T05:49:29.393Z,17.78
2017-05-17T05:50:09.856Z,17.86
2017-05-17T05:52:25.686Z,17.98
2017-05-17T05:53:14.338Z,18.08
2017-05-17T05:53:58.855Z,17.97
2017-05-17T05:54:39.156Z,18.08
2017-05-17T05:55:19.666Z,18.05
2017-05-17T05:56:00.145Z,18.19
2017-05-17T05:56:40.608Z,18.08
2017-05-17T05:57:21.159Z,18.22
2017-05-17T05:58:01.639Z,18.22
2017-05-17T05:58:42.152Z,18.25
2017-05-17T05:59:22.634Z,18.33
2017-05-17T06:00:03.090Z,18.4
2017-05-17T06:00:43.565Z,18.44
2017-05-17T06:01:24.035Z,18.37
2017-05-17T06:02:04.513Z,18.49
2017-05-17T06:02:45.003Z,18.55
2017-05-17T06:03:25.471Z,18.52
2017-05-17T06:04:05.963Z,18.5
2017-05-17T06:04:46.452Z,18.53
2017-05-17T06:05:26.937Z,18.47
2017-05-17T06:06:07.458Z,18.59
2017-05-17T06:06:47.975Z,18.6
2017-05-17T06:07:28.604Z,18.59
2017-05-17T06:08:09.086Z,18.6
2017-05-17T06:08:49.592Z,18.58
2017-05-17T06:09:30.061Z,18.58
2017-05-17T06:10:10.568Z,18.58
2017-05-17T06:10:51.063Z,18.68
2017-05-17T06:11:31.563Z,18.6
2017-05-17T06:12:12.072Z,18.62
2017-05-17T06:12:52.525Z,18.68
2017-05-17T06:13:33.022Z,18.73
2017-05-17T06:14:13.519Z,18.77
2017-05-17T06:14:54.023Z,18.73
2017-05-17T06:15:34.492Z,18.74
2017-05-17T06:16:15.008Z,18.78
2017-05-17T06:16:55.496Z,18.86
2017-05-17T06:17:36.034Z,18.92
2017-05-17T06:18:16.602Z,18.84
2017-05-17T06:18:57.164Z,18.88
2017-05-17T06:19:37.663Z,18.86
2017-05-17T06:20:18.191Z,18.93
2017-05-17T06:20:58.665Z,19.07
2017-05-17T06:21:39.266Z,18.93
2017-05-17T06:22:19.814Z,19
2017-05-17T06:23:00.233Z,18.99
2017-05-17T06:23:40.760Z,18.99
2017-05-17T06:24:22.919Z,19.07
2017-05-17T06:25:03.405Z,19
2017-05-17T06:25:43.886Z,19.12
2017-05-17T06:26:24.475Z,19.24
2017-05-17T06:27:04.965Z,19.21
2017-05-17T06:27:45.443Z,19.19
2017-05-17T06:28:25.943Z,19.29
2017-05-17T06:29:07.324Z,19.27
2017-05-17T06:29:48.521Z,19.39
2017-05-17T06:30:29.037Z,19.37
2017-05-17T06:31:09.552Z,19.39
2017-05-17T06:31:50.086Z,19.41
2017-05-17T06:32:30.539Z,19.37
2017-05-17T06:33:11.019Z,19.44
2017-05-17T06:33:51.502Z,19.39
2017-05-17T06:34:32.075Z,19.48
2017-05-17T06:35:12.569Z,19.51
2017-05-17T06:35:55.090Z,19.54
2017-05-17T06:36:35.561Z,19.63
2017-05-17T06:37:16.181Z,19.58
2017-05-17T06:37:56.636Z,19.64
2017-05-17T06:38:37.348Z,19.66
2017-05-17T06:39:17.828Z,19.7
2017-05-17T06:39:59.095Z,19.7
2017-05-17T06:40:41.260Z,19.86
2017-05-17T06:41:21.725Z,19.94
2017-05-17T06:42:02.205Z,19.96
2017-05-17T06:42:42.658Z,20.04
2017-05-17T06:43:24.936Z,20.06
2017-05-17T06:44:05.433Z,19.92
2017-05-17T06:44:45.911Z,20.04
2017-05-17T06:45:26.378Z,20.04
2017-05-17T06:46:06.861Z,20
2017-05-17T06:46:48.321Z,19.99
2017-05-17T06:47:28.872Z,20.03
2017-05-17T06:48:09.332Z,20.02
2017-05-17T06:48:49.834Z,20.11
2017-05-17T06:49:30.333Z,20.16
2017-05-17T06:50:10.862Z,20.04
2017-05-17T06:50:51.402Z,20.06
2017-05-17T06:51:31.891Z,20.14
2017-05-17T06:52:12.383Z,20.13
2017-05-17T06:52:52.869Z,20.21
2017-05-17T06:53:33.442Z,20.16
2017-05-17T06:54:13.893Z,20.18
2017-05-17T06:54:55.435Z,20.24
2017-05-17T06:55:42.764Z,20.14
2017-05-17T06:56:29.413Z,20.09
2017-05-17T06:57:09.994Z,20.14
2017-05-17T06:57:50.562Z,20.21
2017-05-17T06:58:31.070Z,20.16
2017-05-17T06:59:12.260Z,20.16
2017-05-17T06:59:53.725Z,20.19
2017-05-17T07:00:37.922Z,20.14
2017-05-17T07:01:19.031Z,20.14
2017-05-17T07:02:00.285Z,20.14
2017-05-17T07:02:40.799Z,20.11
2017-05-17T07:03:24.941Z,20.26
2017-05-17T07:04:04.801Z,20.26
2017-05-17T07:04:46.325Z,20.24
2017-05-17T07:05:26.813Z,20.16
2017-05-17T07:06:16.646Z,20.19
2017-05-17T07:07:04.692Z,20.22
2017-05-17T07:07:48.694Z,20.25
2017-05-17T07:08:30.108Z,20.37
2017-05-17T07:09:10.989Z,20.41
2017-05-17T07:10:00.537Z,20.43
2017-05-17T07:10:51.066Z,20.39
2017-05-17T07:11:35.573Z,20.32
2017-05-17T07:12:20.437Z,20.4
2017-05-17T07:13:02.639Z,20.43
2017-05-17T07:13:50.463Z,20.48
2017-05-17T07:14:33.393Z,20.36
2017-05-17T07:15:19.377Z,20.31
2017-05-17T07:16:00.960Z,20.39
2017-05-17T07:16:45.036Z,20.37
2017-05-17T07:17:25.542Z,20.4
2017-05-17T07:18:07.041Z,20.4
2017-05-17T07:18:47.583Z,20.39
2017-05-17T07:19:29.593Z,20.44
2017-05-17T07:20:15.461Z,20.48
2017-05-17T07:20:57.842Z,20.55
2017-05-17T07:21:38.479Z,20.52
2017-05-17T07:22:19.756Z,20.52
2017-05-17T07:23:01.146Z,20.65
2017-05-17T07:23:41.640Z,20.59
2017-05-17T07:24:22.144Z,20.65
2017-05-17T07:25:03.443Z,20.7
2017-05-17T07:25:45.469Z,20.67
2017-05-17T07:26:25.937Z,20.74
2017-05-17T07:27:07.223Z,20.63
2017-05-17T07:27:47.695Z,20.7
2017-05-17T07:28:29.179Z,20.62
2017-05-17T07:29:18.855Z,20.7
2017-05-17T07:30:00.084Z,20.74
2017-05-17T07:30:41.248Z,20.81
2017-05-17T07:31:21.796Z,20.8
2017-05-17T07:32:03.352Z,20.9
2017-05-17T07:32:43.867Z,20.95
2017-05-17T07:33:25.566Z,20.96
2017-05-17T07:34:06.031Z,21
2017-05-17T07:34:47.293Z,21.06
2017-05-17T07:35:27.747Z,21.17
2017-05-17T07:36:08.243Z,21.12
2017-05-17T07:36:48.778Z,21.12
2017-05-17T07:37:29.268Z,21.15
2017-05-17T07:38:09.747Z,21.22
2017-05-17T07:38:50.231Z,21.17
2017-05-17T07:39:30.754Z,21.18
2017-05-17T07:40:11.244Z,21.24
2017-05-17T07:40:51.761Z,21.22
2017-05-17T07:41:32.248Z,21.15
2017-05-17T07:42:12.751Z,21.21
2017-05-17T07:42:53.450Z,21.12
2017-05-17T07:43:33.955Z,21.2
2017-05-17T07:44:14.482Z,21.14
2017-05-17T07:44:54.955Z,21.14
2017-05-17T07:45:35.467Z,21
2017-05-17T07:46:16.080Z,21.12
2017-05-17T07:46:56.634Z,21.09
2017-05-17T07:47:37.093Z,21.06
2017-05-17T07:48:17.658Z,21
2017-05-17T07:48:58.269Z,21.03
2017-05-17T07:49:39.809Z,21.12
2017-05-17T07:50:20.296Z,21.14
2017-05-17T07:51:00.836Z,21.14
2017-05-17T07:51:41.265Z,21.15
2017-05-17T07:52:21.914Z,21.15
2017-05-17T07:53:02.812Z,21.25
2017-05-17T07:55:04.137Z,21.39
2017-05-17T07:55:53.285Z,21.3
2017-05-17T07:57:51.657Z,21.42
2017-05-17T07:58:36.895Z,21.46
2017-05-17T07:59:26.795Z,21.51
2017-05-17T08:00:21.203Z,21.48
2017-05-17T08:01:08.542Z,21.55
2017-05-17T08:01:56.934Z,21.5
2017-05-17T08:02:45.381Z,21.55
2017-05-17T08:03:32.359Z,21.42
2017-05-17T08:04:12.769Z,21.54
2017-05-17T08:04:53.585Z,21.46
2017-05-17T08:05:34.876Z,21.5
2017-05-17T08:06:15.543Z,21.45
2017-05-17T08:06:55.833Z,21.5
2017-05-17T08:07:36.558Z,21.42
2017-05-17T08:08:17.283Z,21.46
2017-05-17T08:08:57.760Z,21.36
2017-05-17T08:09:38.352Z,21.45
2017-05-17T08:10:18.845Z,21.42
2017-05-17T08:10:59.257Z,21.33
2017-05-17T08:11:39.833Z,21.42
2017-05-17T08:12:20.343Z,21.4
2017-05-17T08:13:01.131Z,21.52
2017-05-17T08:13:41.666Z,21.5
2017-05-17T08:14:22.110Z,21.54
2017-05-17T08:15:02.608Z,21.61
2017-05-17T08:15:43.097Z,21.62
2017-05-17T08:16:23.539Z,21.48
2017-05-17T08:17:04.122Z,21.39
2017-05-17T08:17:45.437Z,21.36
2017-05-17T08:18:25.214Z,21.36
2017-05-17T08:19:05.897Z,21.39
2017-05-17T08:19:46.955Z,21.43
2017-05-17T08:20:27.424Z,21.3
2017-05-17T08:21:07.891Z,21.35
2017-05-17T08:21:48.363Z,21.35
2017-05-17T08:22:28.872Z,21.4
2017-05-17T08:23:09.448Z,21.37
2017-05-17T08:23:50.298Z,21.42
2017-05-17T08:24:30.744Z,21.43
2017-05-17T08:25:11.272Z,21.58
2017-05-17T08:25:51.811Z,21.57
2017-05-17T08:26:32.361Z,21.52
2017-05-17T08:27:12.931Z,21.4
2017-05-17T08:29:03.657Z,21.22
2017-05-17T08:29:50.998Z,21.29
2017-05-17T08:30:40.178Z,21.39
2017-05-17T08:31:29.245Z,21.46
2017-05-17T08:32:17.777Z,21.54
2017-05-17T08:33:07.010Z,21.52
2017-05-17T08:35:12.714Z,21.24
2017-05-17T08:36:01.829Z,21.25
2017-05-17T08:36:50.334Z,21.2
2017-05-17T08:37:39.002Z,21.24
2017-05-17T08:38:27.861Z,21.4
2017-05-17T08:40:57.034Z,21.33
2017-05-17T08:41:44.368Z,21.12
2017-05-17T08:42:32.549Z,21.11
2017-05-17T08:43:21.321Z,21.15
2017-05-17T08:44:09.501Z,21.17
2017-05-17T08:44:59.379Z,21.27
2017-05-17T08:45:47.893Z,21.37
2017-05-17T08:46:36.573Z,21.33
2017-05-17T08:47:25.542Z,21.22
2017-05-17T08:48:14.892Z,21.17
2017-05-17T08:49:03.858Z,21.33
2017-05-17T08:49:52.695Z,21.43
2017-05-17T08:50:41.873Z,21.45
2017-05-17T08:51:24.417Z,21.42
2017-05-17T08:52:04.843Z,21.32
2017-05-17T08:52:45.500Z,21.24
2017-05-17T08:53:26.004Z,21.24
2017-05-17T08:54:06.473Z,21.22
2017-05-17T08:54:47.792Z,21.25
2017-05-17T08:55:28.307Z,21.42
2017-05-17T08:56:08.813Z,21.5
2017-05-17T08:56:49.323Z,21.51
2017-05-17T08:57:29.824Z,21.6
2017-05-17T08:58:10.314Z,21.55
2017-05-17T08:58:50.800Z,21.61
2017-05-17T08:59:31.340Z,21.55
2017-05-17T09:00:12.164Z,21.58
2017-05-17T09:00:52.756Z,21.66
2017-05-17T09:01:33.227Z,21.57
2017-05-17T09:02:13.730Z,21.55
2017-05-17T09:02:54.247Z,21.67
2017-05-17T09:03:34.696Z,21.58
2017-05-17T09:04:15.231Z,21.58
2017-05-17T09:04:55.740Z,21.54
2017-05-17T09:05:36.160Z,21.61
2017-05-17T09:06:16.731Z,21.58
2017-05-17T09:06:57.195Z,21.61
2017-05-17T09:07:37.793Z,21.77
2017-05-17T09:08:18.255Z,21.83
2017-05-17T09:08:58.811Z,21.95
2017-05-17T09:09:41.182Z,21.98
2017-05-17T09:10:21.899Z,22.04
2017-05-17T09:11:02.292Z,21.93